sensor_id;sensor_type;location;lat;lon;timestamp;temperature;humidity
21123;DHT22;10719;48.130;11.630;2023-07-13T00:01:53;17.80;99.90
21123;DHT22;10719;48.130;11.630;2023-07-13T00:04:21;17.80;99.90
21123;DHT22;10719;48.130;11.630;2023-07-13T00:06:47;17.80;99.90
21123;DHT22;10719;48.130;11.630;2023-07-13T00:09:14;17.80;99.90
21123;DHT22;10719;48.130;11.630;2023-07-13T00:11:40;17.80;99.90
21123;DHT22;10719;48.130;11.630;2023-07-13T00:14:06;17.80;99.90
21123;DHT22;10719;48.130;11.630;2023-07-13T00:16:34;17.80;99.90
21123;DHT22;10719;48.130;11.630;2023-07-13T00:19:00;17.80;99.90
21123;DHT22;10719;48.130;11.630;2023-07-13T00:21:26;17.80;99.90
21123;DHT22;10719;48.130;11.630;2023-07-13T00:23:52;17.80;99.90
21123;DHT22;10719;48.130;11.630;2023-07-13T00:26:18;17.80;99.90
21123;DHT22;10719;48.130;11.630;2023-07-13T00:28:43;17.80;99.90
21123;DHT22;10719;48.130;11.630;2023-07-13T00:31:11;17.90;99.90
21123;DHT22;10719;48.130;11.630;2023-07-13T00:33:37;17.90;99.90
21123;DHT22;10719;48.130;11.630;2023-07-13T00:36:04;17.80;99.90
21123;DHT22;10719;48.130;11.630;2023-07-13T00:38:29;17.90;99.90
21123;DHT22;10719;48.130;11.630;2023-07-13T00:40:55;17.80;99.90
21123;DHT22;10719;48.130;11.630;2023-07-13T00:43:22;17.80;99.90
21123;DHT22;10719;48.130;11.630;2023-07-13T00:48:26;17.80;99.90
21123;DHT22;10719;48.130;11.630;2023-07-13T00:50:56;17.90;99.90
21123;DHT22;10719;48.130;11.630;2023-07-13T00:53:27;17.80;99.90
21123;DHT22;10719;48.130;11.630;2023-07-13T00:55:55;17.80;99.90
21123;DHT22;10719;48.130;11.630;2023-07-13T00:58:22;17.80;99.90
21123;DHT22;10719;48.130;11.630;2023-07-13T01:00:48;17.80;99.90
21123;DHT22;10719;48.130;11.630;2023-07-13T01:03:15;17.80;99.90
21123;DHT22;10719;48.130;11.630;2023-07-13T01:05:40;17.80;99.90
21123;DHT22;10719;48.130;11.630;2023-07-13T01:08:06;17.80;99.90
21123;DHT22;10719;48.130;11.630;2023-07-13T01:10:32;17.80;99.90
21123;DHT22;10719;48.130;11.630;2023-07-13T01:13:09;17.80;99.90
21123;DHT22;10719;48.130;11.630;2023-07-13T01:15:42;17.80;99.90
21123;DHT22;10719;48.130;11.630;2023-07-13T01:18:11;17.80;99.90
21123;DHT22;10719;48.130;11.630;2023-07-13T01:20:38;17.80;99.90
21123;DHT22;10719;48.130;11.630;2023-07-13T01:23:10;17.70;99.90
21123;DHT22;10719;48.130;11.630;2023-07-13T01:25:36;17.60;99.90
21123;DHT22;10719;48.130;11.630;2023-07-13T01:28:07;17.60;99.90
21123;DHT22;10719;48.130;11.630;2023-07-13T01:30:35;17.60;99.90
21123;DHT22;10719;48.130;11.630;2023-07-13T01:33:00;17.60;99.90
21123;DHT22;10719;48.130;11.630;2023-07-13T01:35:26;17.60;99.90
21123;DHT22;10719;48.130;11.630;2023-07-13T01:37:53;17.60;99.90
21123;DHT22;10719;48.130;11.630;2023-07-13T01:40:19;17.60;99.90
21123;DHT22;10719;48.130;11.630;2023-07-13T01:42:45;17.60;99.90
21123;DHT22;10719;48.130;11.630;2023-07-13T01:45:11;17.60;99.90
21123;DHT22;10719;48.130;11.630;2023-07-13T01:47:36;17.60;99.90
21123;DHT22;10719;48.130;11.630;2023-07-13T01:50:02;17.70;99.90
21123;DHT22;10719;48.130;11.630;2023-07-13T01:52:28;17.70;99.90
21123;DHT22;10719;48.130;11.630;2023-07-13T01:54:53;17.80;99.90
21123;DHT22;10719;48.130;11.630;2023-07-13T01:57:19;17.80;99.90
21123;DHT22;10719;48.130;11.630;2023-07-13T01:59:45;17.80;99.90
21123;DHT22;10719;48.130;11.630;2023-07-13T02:02:10;17.80;99.90
21123;DHT22;10719;48.130;11.630;2023-07-13T02:04:36;17.80;99.90
21123;DHT22;10719;48.130;11.630;2023-07-13T02:07:02;17.80;99.90
21123;DHT22;10719;48.130;11.630;2023-07-13T02:09:27;17.80;99.90
21123;DHT22;10719;48.130;11.630;2023-07-13T02:11:53;17.80;99.90
21123;DHT22;10719;48.130;11.630;2023-07-13T02:14:18;17.80;99.90
21123;DHT22;10719;48.130;11.630;2023-07-13T02:16:44;17.80;99.90
21123;DHT22;10719;48.130;11.630;2023-07-13T02:19:10;17.80;99.90
21123;DHT22;10719;48.130;11.630;2023-07-13T02:21:35;17.80;99.90
21123;DHT22;10719;48.130;11.630;2023-07-13T02:24:01;17.80;99.90
21123;DHT22;10719;48.130;11.630;2023-07-13T02:26:27;17.80;99.90
21123;DHT22;10719;48.130;11.630;2023-07-13T02:28:53;17.90;99.90
21123;DHT22;10719;48.130;11.630;2023-07-13T02:31:19;17.80;99.90
21123;DHT22;10719;48.130;11.630;2023-07-13T02:33:45;17.80;99.90
21123;DHT22;10719;48.130;11.630;2023-07-13T02:36:12;17.90;99.90
21123;DHT22;10719;48.130;11.630;2023-07-13T02:38:38;17.90;99.90
21123;DHT22;10719;48.130;11.630;2023-07-13T02:41:05;17.90;99.90
21123;DHT22;10719;48.130;11.630;2023-07-13T02:43:31;17.90;99.90
21123;DHT22;10719;48.130;11.630;2023-07-13T02:45:58;18.00;99.90
21123;DHT22;10719;48.130;11.630;2023-07-13T02:48:26;18.10;99.90
21123;DHT22;10719;48.130;11.630;2023-07-13T02:50:51;18.10;99.90
21123;DHT22;10719;48.130;11.630;2023-07-13T02:53:17;18.10;99.90
21123;DHT22;10719;48.130;11.630;2023-07-13T02:55:42;18.10;99.90
21123;DHT22;10719;48.130;11.630;2023-07-13T02:58:13;18.20;99.90
21123;DHT22;10719;48.130;11.630;2023-07-13T03:00:42;18.10;99.90
21123;DHT22;10719;48.130;11.630;2023-07-13T03:03:08;18.10;99.90
21123;DHT22;10719;48.130;11.630;2023-07-13T03:05:34;18.00;99.90
21123;DHT22;10719;48.130;11.630;2023-07-13T03:07:59;17.90;99.90
21123;DHT22;10719;48.130;11.630;2023-07-13T03:10:25;17.80;99.90
21123;DHT22;10719;48.130;11.630;2023-07-13T03:12:50;17.80;99.90
21123;DHT22;10719;48.130;11.630;2023-07-13T03:15:16;17.60;99.90
21123;DHT22;10719;48.130;11.630;2023-07-13T03:17:42;17.50;99.90
21123;DHT22;10719;48.130;11.630;2023-07-13T03:20:08;17.30;99.90
21123;DHT22;10719;48.130;11.630;2023-07-13T03:22:33;17.20;99.90
21123;DHT22;10719;48.130;11.630;2023-07-13T03:24:59;17.20;99.90
21123;DHT22;10719;48.130;11.630;2023-07-13T03:27:24;17.10;99.90
21123;DHT22;10719;48.130;11.630;2023-07-13T03:29:50;17.10;99.90
21123;DHT22;10719;48.130;11.630;2023-07-13T03:32:15;17.00;99.90
21123;DHT22;10719;48.130;11.630;2023-07-13T03:34:41;17.00;99.90
21123;DHT22;10719;48.130;11.630;2023-07-13T03:37:07;17.00;99.90
21123;DHT22;10719;48.130;11.630;2023-07-13T03:39:33;17.00;99.90
21123;DHT22;10719;48.130;11.630;2023-07-13T03:41:58;17.00;99.90
21123;DHT22;10719;48.130;11.630;2023-07-13T03:44:24;17.00;99.90
21123;DHT22;10719;48.130;11.630;2023-07-13T03:46:49;16.90;99.90
21123;DHT22;10719;48.130;11.630;2023-07-13T03:49:15;16.90;99.90
21123;DHT22;10719;48.130;11.630;2023-07-13T03:51:41;16.90;99.90
21123;DHT22;10719;48.130;11.630;2023-07-13T03:54:06;16.90;99.90
21123;DHT22;10719;48.130;11.630;2023-07-13T03:56:32;16.90;99.90
21123;DHT22;10719;48.130;11.630;2023-07-13T03:58:58;16.80;99.90
21123;DHT22;10719;48.130;11.630;2023-07-13T04:01:24;16.80;99.90
21123;DHT22;10719;48.130;11.630;2023-07-13T04:03:51;16.80;99.90
21123;DHT22;10719;48.130;11.630;2023-07-13T04:06:29;16.70;99.90
21123;DHT22;10719;48.130;11.630;2023-07-13T04:08:57;16.70;99.90
21123;DHT22;10719;48.130;11.630;2023-07-13T04:11:25;16.60;99.90
21123;DHT22;10719;48.130;11.630;2023-07-13T04:13:52;16.70;99.90
21123;DHT22;10719;48.130;11.630;2023-07-13T04:16:19;16.60;99.90
21123;DHT22;10719;48.130;11.630;2023-07-13T04:18:45;16.70;99.90
21123;DHT22;10719;48.130;11.630;2023-07-13T04:21:11;16.70;99.90
21123;DHT22;10719;48.130;11.630;2023-07-13T04:23:37;16.70;99.90
21123;DHT22;10719;48.130;11.630;2023-07-13T04:26:04;16.70;99.90
21123;DHT22;10719;48.130;11.630;2023-07-13T04:28:30;16.70;99.90
21123;DHT22;10719;48.130;11.630;2023-07-13T04:30:56;16.70;99.90
21123;DHT22;10719;48.130;11.630;2023-07-13T04:33:22;16.70;99.90
21123;DHT22;10719;48.130;11.630;2023-07-13T04:35:52;16.70;99.90
21123;DHT22;10719;48.130;11.630;2023-07-13T04:38:20;16.70;99.90
21123;DHT22;10719;48.130;11.630;2023-07-13T04:40:46;16.80;99.90
21123;DHT22;10719;48.130;11.630;2023-07-13T04:43:11;16.80;99.90
21123;DHT22;10719;48.130;11.630;2023-07-13T04:45:37;16.80;99.90
21123;DHT22;10719;48.130;11.630;2023-07-13T04:48:03;16.80;99.90
21123;DHT22;10719;48.130;11.630;2023-07-13T04:50:28;16.80;99.90
21123;DHT22;10719;48.130;11.630;2023-07-13T04:52:54;16.80;99.90
21123;DHT22;10719;48.130;11.630;2023-07-13T04:55:20;16.80;99.90
21123;DHT22;10719;48.130;11.630;2023-07-13T04:57:46;16.90;99.90
21123;DHT22;10719;48.130;11.630;2023-07-13T05:00:13;16.90;99.90
21123;DHT22;10719;48.130;11.630;2023-07-13T05:02:39;17.00;99.90
21123;DHT22;10719;48.130;11.630;2023-07-13T05:05:06;16.90;99.90
21123;DHT22;10719;48.130;11.630;2023-07-13T05:07:32;16.90;99.90
21123;DHT22;10719;48.130;11.630;2023-07-13T05:09:59;16.90;99.90
21123;DHT22;10719;48.130;11.630;2023-07-13T05:12:25;16.90;99.90
21123;DHT22;10719;48.130;11.630;2023-07-13T05:14:51;17.00;99.90
21123;DHT22;10719;48.130;11.630;2023-07-13T05:17:17;17.00;99.90
21123;DHT22;10719;48.130;11.630;2023-07-13T05:19:43;17.00;99.90
21123;DHT22;10719;48.130;11.630;2023-07-13T05:22:09;17.10;99.90
21123;DHT22;10719;48.130;11.630;2023-07-13T05:24:34;17.20;99.90
21123;DHT22;10719;48.130;11.630;2023-07-13T05:27:00;17.20;99.90
21123;DHT22;10719;48.130;11.630;2023-07-13T05:29:25;17.20;99.90
21123;DHT22;10719;48.130;11.630;2023-07-13T05:31:51;17.20;99.90
21123;DHT22;10719;48.130;11.630;2023-07-13T05:34:17;17.10;99.90
21123;DHT22;10719;48.130;11.630;2023-07-13T05:36:43;17.10;99.90
21123;DHT22;10719;48.130;11.630;2023-07-13T05:39:08;17.10;99.90
21123;DHT22;10719;48.130;11.630;2023-07-13T05:41:35;17.10;99.90
21123;DHT22;10719;48.130;11.630;2023-07-13T05:44:01;17.10;99.90
21123;DHT22;10719;48.130;11.630;2023-07-13T05:46:27;17.00;99.90
21123;DHT22;10719;48.130;11.630;2023-07-13T05:48:53;17.10;99.90
21123;DHT22;10719;48.130;11.630;2023-07-13T05:51:19;17.20;99.90
21123;DHT22;10719;48.130;11.630;2023-07-13T05:53:45;17.40;99.90
21123;DHT22;10719;48.130;11.630;2023-07-13T05:56:10;17.50;99.90
21123;DHT22;10719;48.130;11.630;2023-07-13T05:58:36;17.70;99.90
21123;DHT22;10719;48.130;11.630;2023-07-13T06:01:05;17.70;99.90
21123;DHT22;10719;48.130;11.630;2023-07-13T06:03:32;17.80;99.90
21123;DHT22;10719;48.130;11.630;2023-07-13T06:05:58;17.80;99.90
21123;DHT22;10719;48.130;11.630;2023-07-13T06:08:26;17.90;99.90
21123;DHT22;10719;48.130;11.630;2023-07-13T06:10:51;17.90;99.90
21123;DHT22;10719;48.130;11.630;2023-07-13T06:13:17;17.90;99.90
21123;DHT22;10719;48.130;11.630;2023-07-13T06:15:50;17.90;99.90
21123;DHT22;10719;48.130;11.630;2023-07-13T06:18:16;17.90;99.90
21123;DHT22;10719;48.130;11.630;2023-07-13T06:20:41;17.90;99.90
21123;DHT22;10719;48.130;11.630;2023-07-13T06:23:07;17.90;99.90
21123;DHT22;10719;48.130;11.630;2023-07-13T06:25:32;17.90;99.90
21123;DHT22;10719;48.130;11.630;2023-07-13T06:27:58;17.90;99.90
21123;DHT22;10719;48.130;11.630;2023-07-13T06:30:24;18.00;99.90
21123;DHT22;10719;48.130;11.630;2023-07-13T06:32:49;18.00;99.90
21123;DHT22;10719;48.130;11.630;2023-07-13T06:35:15;18.10;99.90
21123;DHT22;10719;48.130;11.630;2023-07-13T06:37:41;18.30;99.90
21123;DHT22;10719;48.130;11.630;2023-07-13T06:40:07;18.30;99.90
21123;DHT22;10719;48.130;11.630;2023-07-13T06:42:33;18.40;99.90
21123;DHT22;10719;48.130;11.630;2023-07-13T06:44:58;18.60;99.90
21123;DHT22;10719;48.130;11.630;2023-07-13T06:47:24;18.60;99.90
21123;DHT22;10719;48.130;11.630;2023-07-13T06:49:49;18.60;99.90
21123;DHT22;10719;48.130;11.630;2023-07-13T06:52:15;18.50;99.90
21123;DHT22;10719;48.130;11.630;2023-07-13T06:54:40;18.40;99.90
21123;DHT22;10719;48.130;11.630;2023-07-13T06:57:06;18.40;99.90
21123;DHT22;10719;48.130;11.630;2023-07-13T06:59:32;18.50;99.90
21123;DHT22;10719;48.130;11.630;2023-07-13T07:01:58;18.40;99.90
21123;DHT22;10719;48.130;11.630;2023-07-13T07:04:23;18.40;99.90
21123;DHT22;10719;48.130;11.630;2023-07-13T07:06:49;18.40;99.90
21123;DHT22;10719;48.130;11.630;2023-07-13T07:09:15;18.50;99.90
21123;DHT22;10719;48.130;11.630;2023-07-13T07:11:42;18.60;99.90
21123;DHT22;10719;48.130;11.630;2023-07-13T07:14:08;18.60;99.90
21123;DHT22;10719;48.130;11.630;2023-07-13T07:16:33;18.70;99.90
21123;DHT22;10719;48.130;11.630;2023-07-13T07:18:59;18.80;99.90
21123;DHT22;10719;48.130;11.630;2023-07-13T07:21:24;18.90;99.90
21123;DHT22;10719;48.130;11.630;2023-07-13T07:23:51;18.90;99.90
21123;DHT22;10719;48.130;11.630;2023-07-13T07:26:17;18.90;99.90
21123;DHT22;10719;48.130;11.630;2023-07-13T07:28:43;18.80;99.90
21123;DHT22;10719;48.130;11.630;2023-07-13T07:31:09;18.60;99.90
21123;DHT22;10719;48.130;11.630;2023-07-13T07:33:35;18.70;99.90
21123;DHT22;10719;48.130;11.630;2023-07-13T07:36:01;18.70;99.90
21123;DHT22;10719;48.130;11.630;2023-07-13T07:38:26;18.70;99.90
21123;DHT22;10719;48.130;11.630;2023-07-13T07:40:52;18.80;99.90
21123;DHT22;10719;48.130;11.630;2023-07-13T07:43:18;18.90;99.90
21123;DHT22;10719;48.130;11.630;2023-07-13T07:45:44;18.90;99.90
21123;DHT22;10719;48.130;11.630;2023-07-13T07:48:11;18.90;99.90
21123;DHT22;10719;48.130;11.630;2023-07-13T07:50:37;19.00;99.90
21123;DHT22;10719;48.130;11.630;2023-07-13T07:53:05;19.00;99.90
21123;DHT22;10719;48.130;11.630;2023-07-13T07:55:34;19.00;99.90
21123;DHT22;10719;48.130;11.630;2023-07-13T07:58:01;19.00;99.90
21123;DHT22;10719;48.130;11.630;2023-07-13T08:00:26;19.10;99.90
21123;DHT22;10719;48.130;11.630;2023-07-13T08:02:54;19.10;99.90
21123;DHT22;10719;48.130;11.630;2023-07-13T08:05:20;19.00;99.90
21123;DHT22;10719;48.130;11.630;2023-07-13T08:07:45;19.00;99.90
21123;DHT22;10719;48.130;11.630;2023-07-13T08:10:11;18.90;99.90
21123;DHT22;10719;48.130;11.630;2023-07-13T08:12:38;18.80;99.90
21123;DHT22;10719;48.130;11.630;2023-07-13T08:15:05;18.60;99.90
21123;DHT22;10719;48.130;11.630;2023-07-13T08:17:31;18.60;99.90
21123;DHT22;10719;48.130;11.630;2023-07-13T08:19:57;18.60;99.90
21123;DHT22;10719;48.130;11.630;2023-07-13T08:22:22;18.60;99.90
21123;DHT22;10719;48.130;11.630;2023-07-13T08:24:48;18.60;99.90
21123;DHT22;10719;48.130;11.630;2023-07-13T08:27:21;18.60;99.90
21123;DHT22;10719;48.130;11.630;2023-07-13T08:29:48;18.60;99.90
21123;DHT22;10719;48.130;11.630;2023-07-13T08:32:14;18.50;99.90
21123;DHT22;10719;48.130;11.630;2023-07-13T08:34:40;18.50;99.90
21123;DHT22;10719;48.130;11.630;2023-07-13T08:37:06;18.60;99.90
21123;DHT22;10719;48.130;11.630;2023-07-13T08:39:33;18.50;99.90
21123;DHT22;10719;48.130;11.630;2023-07-13T08:42:44;18.40;99.90
21123;DHT22;10719;48.130;11.630;2023-07-13T08:47:47;18.40;99.90
21123;DHT22;10719;48.130;11.630;2023-07-13T08:50:17;18.40;99.90
21123;DHT22;10719;48.130;11.630;2023-07-13T08:52:45;18.40;99.90
21123;DHT22;10719;48.130;11.630;2023-07-13T08:55:24;18.40;99.90
21123;DHT22;10719;48.130;11.630;2023-07-13T08:58:02;18.50;99.90
21123;DHT22;10719;48.130;11.630;2023-07-13T09:00:36;18.60;99.90
21123;DHT22;10719;48.130;11.630;2023-07-13T09:03:05;18.70;99.90
21123;DHT22;10719;48.130;11.630;2023-07-13T09:05:40;18.80;99.90
21123;DHT22;10719;48.130;11.630;2023-07-13T09:10:59;18.80;99.90
21123;DHT22;10719;48.130;11.630;2023-07-13T09:16:21;18.90;99.90
21123;DHT22;10719;48.130;11.630;2023-07-13T09:18:51;19.00;99.90
21123;DHT22;10719;48.130;11.630;2023-07-13T09:21:31;18.90;99.90
21123;DHT22;10719;48.130;11.630;2023-07-13T09:26:43;19.20;99.90
21123;DHT22;10719;48.130;11.630;2023-07-13T09:29:20;19.20;99.90
21123;DHT22;10719;48.130;11.630;2023-07-13T09:31:50;19.30;99.90
21123;DHT22;10719;48.130;11.630;2023-07-13T09:34:18;19.30;99.90
21123;DHT22;10719;48.130;11.630;2023-07-13T09:36:43;19.60;99.90
21123;DHT22;10719;48.130;11.630;2023-07-13T09:39:29;19.80;99.90
21123;DHT22;10719;48.130;11.630;2023-07-13T09:42:19;19.70;99.90
21123;DHT22;10719;48.130;11.630;2023-07-13T09:44:58;19.80;99.90
21123;DHT22;10719;48.130;11.630;2023-07-13T09:47:27;19.70;99.90
21123;DHT22;10719;48.130;11.630;2023-07-13T09:49:57;19.60;99.90
21123;DHT22;10719;48.130;11.630;2023-07-13T09:52:23;19.50;99.90
21123;DHT22;10719;48.130;11.630;2023-07-13T09:54:50;19.50;99.90
21123;DHT22;10719;48.130;11.630;2023-07-13T09:57:19;19.70;99.90
21123;DHT22;10719;48.130;11.630;2023-07-13T09:59:50;20.00;99.90
21123;DHT22;10719;48.130;11.630;2023-07-13T10:02:33;20.10;99.90
21123;DHT22;10719;48.130;11.630;2023-07-13T10:05:03;20.20;99.90
21123;DHT22;10719;48.130;11.630;2023-07-13T10:07:30;20.50;99.90
21123;DHT22;10719;48.130;11.630;2023-07-13T10:09:58;20.80;99.90
21123;DHT22;10719;48.130;11.630;2023-07-13T10:12:26;21.10;99.90
21123;DHT22;10719;48.130;11.630;2023-07-13T10:14:55;21.10;99.90
21123;DHT22;10719;48.130;11.630;2023-07-13T10:17:29;21.30;99.90
21123;DHT22;10719;48.130;11.630;2023-07-13T10:20:00;21.70;99.90
21123;DHT22;10719;48.130;11.630;2023-07-13T10:25:18;22.60;99.90
21123;DHT22;10719;48.130;11.630;2023-07-13T10:27:45;22.80;99.90
21123;DHT22;10719;48.130;11.630;2023-07-13T10:30:24;23.50;99.90
21123;DHT22;10719;48.130;11.630;2023-07-13T10:32:58;24.10;99.90
21123;DHT22;10719;48.130;11.630;2023-07-13T10:35:24;24.50;99.90
21123;DHT22;10719;48.130;11.630;2023-07-13T10:40:35;24.50;99.90
21123;DHT22;10719;48.130;11.630;2023-07-13T10:43:11;24.10;99.90
21123;DHT22;10719;48.130;11.630;2023-07-13T10:45:40;24.20;99.90
21123;DHT22;10719;48.130;11.630;2023-07-13T10:48:06;24.60;99.90
21123;DHT22;10719;48.130;11.630;2023-07-13T10:50:38;24.60;99.90
21123;DHT22;10719;48.130;11.630;2023-07-13T10:58:28;25.60;99.90
21123;DHT22;10719;48.130;11.630;2023-07-13T11:03:32;25.20;99.90
21123;DHT22;10719;48.130;11.630;2023-07-13T11:08:57;24.90;99.90
21123;DHT22;10719;48.130;11.630;2023-07-13T11:21:16;23.90;99.90
21123;DHT22;10719;48.130;11.630;2023-07-13T11:23:43;24.30;99.90
21123;DHT22;10719;48.130;11.630;2023-07-13T11:31:39;24.50;99.90
21123;DHT22;10719;48.130;11.630;2023-07-13T11:34:15;25.00;99.90
21123;DHT22;10719;48.130;11.630;2023-07-13T11:36:43;24.70;99.90
21123;DHT22;10719;48.130;11.630;2023-07-13T11:39:19;24.70;99.90
21123;DHT22;10719;48.130;11.630;2023-07-13T11:41:52;25.40;99.90
21123;DHT22;10719;48.130;11.630;2023-07-13T11:44:22;25.80;99.90
21123;DHT22;10719;48.130;11.630;2023-07-13T11:46:56;25.90;99.90
21123;DHT22;10719;48.130;11.630;2023-07-13T11:49:24;25.60;99.90
21123;DHT22;10719;48.130;11.630;2023-07-13T11:51:51;25.90;99.90
21123;DHT22;10719;48.130;11.630;2023-07-13T11:56:44;27.20;99.90
21123;DHT22;10719;48.130;11.630;2023-07-13T11:59:13;27.90;99.90
21123;DHT22;10719;48.130;11.630;2023-07-13T12:01:45;27.90;99.90
21123;DHT22;10719;48.130;11.630;2023-07-13T12:04:21;28.10;99.90
21123;DHT22;10719;48.130;11.630;2023-07-13T12:06:56;28.30;99.90
21123;DHT22;10719;48.130;11.630;2023-07-13T12:09:26;27.70;99.90
21123;DHT22;10719;48.130;11.630;2023-07-13T12:11:52;27.60;99.90
21123;DHT22;10719;48.130;11.630;2023-07-13T12:14:19;28.60;99.90
21123;DHT22;10719;48.130;11.630;2023-07-13T12:16:46;28.80;99.90
21123;DHT22;10719;48.130;11.630;2023-07-13T12:19:26;28.60;99.90
21123;DHT22;10719;48.130;11.630;2023-07-13T12:21:55;27.90;99.90
21123;DHT22;10719;48.130;11.630;2023-07-13T12:24:22;27.30;99.90
21123;DHT22;10719;48.130;11.630;2023-07-13T12:27:00;27.30;99.90
21123;DHT22;10719;48.130;11.630;2023-07-13T12:29:26;26.80;99.90
21123;DHT22;10719;48.130;11.630;2023-07-13T12:31:52;27.00;99.90
21123;DHT22;10719;48.130;11.630;2023-07-13T12:34:21;26.30;99.90
21123;DHT22;10719;48.130;11.630;2023-07-13T12:36:50;26.00;99.90
21123;DHT22;10719;48.130;11.630;2023-07-13T12:39:39;25.50;99.90
21123;DHT22;10719;48.130;11.630;2023-07-13T12:42:29;25.10;99.90
21123;DHT22;10719;48.130;11.630;2023-07-13T12:45:03;25.30;99.90
21123;DHT22;10719;48.130;11.630;2023-07-13T12:47:43;25.40;99.90
21123;DHT22;10719;48.130;11.630;2023-07-13T12:50:18;25.50;99.90
21123;DHT22;10719;48.130;11.630;2023-07-13T12:52:51;25.10;99.90
21123;DHT22;10719;48.130;11.630;2023-07-13T12:55:19;25.20;99.90
21123;DHT22;10719;48.130;11.630;2023-07-13T12:57:56;26.00;99.90
21123;DHT22;10719;48.130;11.630;2023-07-13T13:00:40;26.40;99.90
21123;DHT22;10719;48.130;11.630;2023-07-13T13:03:40;27.10;99.90
21123;DHT22;10719;48.130;11.630;2023-07-13T13:06:21;28.40;99.90
21123;DHT22;10719;48.130;11.630;2023-07-13T13:08:51;29.40;99.90
21123;DHT22;10719;48.130;11.630;2023-07-13T13:11:19;29.60;99.90
21123;DHT22;10719;48.130;11.630;2023-07-13T13:13:45;30.20;99.90
21123;DHT22;10719;48.130;11.630;2023-07-13T13:18:57;30.70;99.90
21123;DHT22;10719;48.130;11.630;2023-07-13T13:21:25;30.30;99.90
21123;DHT22;10719;48.130;11.630;2023-07-13T13:23:51;30.80;99.90
21123;DHT22;10719;48.130;11.630;2023-07-13T13:26:19;30.70;99.90
21123;DHT22;10719;48.130;11.630;2023-07-13T13:28:45;30.90;99.90
21123;DHT22;10719;48.130;11.630;2023-07-13T13:31:13;31.60;99.90
21123;DHT22;10719;48.130;11.630;2023-07-13T13:33:41;32.00;99.90
21123;DHT22;10719;48.130;11.630;2023-07-13T13:36:19;32.10;99.90
21123;DHT22;10719;48.130;11.630;2023-07-13T13:38:45;32.70;99.90
21123;DHT22;10719;48.130;11.630;2023-07-13T13:41:13;31.50;99.90
21123;DHT22;10719;48.130;11.630;2023-07-13T13:43:40;29.80;99.90
21123;DHT22;10719;48.130;11.630;2023-07-13T13:46:17;28.90;99.90
21123;DHT22;10719;48.130;11.630;2023-07-13T13:48:44;28.50;99.90
21123;DHT22;10719;48.130;11.630;2023-07-13T13:51:18;28.70;99.90
21123;DHT22;10719;48.130;11.630;2023-07-13T13:53:45;28.10;99.90
21123;DHT22;10719;48.130;11.630;2023-07-13T13:56:12;27.70;99.90
21123;DHT22;10719;48.130;11.630;2023-07-13T13:58:38;26.30;99.90
21123;DHT22;10719;48.130;11.630;2023-07-13T14:01:04;25.80;99.90
21123;DHT22;10719;48.130;11.630;2023-07-13T14:03:34;25.50;99.90
21123;DHT22;10719;48.130;11.630;2023-07-13T14:05:59;24.70;99.90
21123;DHT22;10719;48.130;11.630;2023-07-13T14:08:25;24.70;99.90
21123;DHT22;10719;48.130;11.630;2023-07-13T14:10:53;25.80;99.90
21123;DHT22;10719;48.130;11.630;2023-07-13T14:13:30;27.40;99.90
21123;DHT22;10719;48.130;11.630;2023-07-13T14:15:57;28.10;99.90
21123;DHT22;10719;48.130;11.630;2023-07-13T14:18:24;27.70;99.90
21123;DHT22;10719;48.130;11.630;2023-07-13T14:20:50;27.30;99.90
21123;DHT22;10719;48.130;11.630;2023-07-13T14:23:17;26.20;99.90
21123;DHT22;10719;48.130;11.630;2023-07-13T14:25:44;25.90;99.90
21123;DHT22;10719;48.130;11.630;2023-07-13T14:28:25;25.70;99.90
21123;DHT22;10719;48.130;11.630;2023-07-13T14:30:52;26.60;99.90
21123;DHT22;10719;48.130;11.630;2023-07-13T14:33:18;28.50;99.90
21123;DHT22;10719;48.130;11.630;2023-07-13T14:35:44;29.90;99.90
21123;DHT22;10719;48.130;11.630;2023-07-13T14:38:18;29.50;99.90
21123;DHT22;10719;48.130;11.630;2023-07-13T14:40:44;30.00;99.90
21123;DHT22;10719;48.130;11.630;2023-07-13T14:43:14;29.90;99.90
21123;DHT22;10719;48.130;11.630;2023-07-13T14:45:43;28.30;99.90
21123;DHT22;10719;48.130;11.630;2023-07-13T14:48:24;27.10;99.90
21123;DHT22;10719;48.130;11.630;2023-07-13T14:50:57;27.50;99.90
21123;DHT22;10719;48.130;11.630;2023-07-13T14:53:25;28.20;99.90
21123;DHT22;10719;48.130;11.630;2023-07-13T14:55:50;28.90;99.90
21123;DHT22;10719;48.130;11.630;2023-07-13T14:58:16;29.80;99.90
21123;DHT22;10719;48.130;11.630;2023-07-13T15:00:42;30.40;99.90
21123;DHT22;10719;48.130;11.630;2023-07-13T15:03:19;30.60;99.90
21123;DHT22;10719;48.130;11.630;2023-07-13T15:05:47;30.30;99.90
21123;DHT22;10719;48.130;11.630;2023-07-13T15:08:13;30.00;99.90
21123;DHT22;10719;48.130;11.630;2023-07-13T15:10:40;29.40;99.90
21123;DHT22;10719;48.130;11.630;2023-07-13T15:13:20;29.30;99.90
21123;DHT22;10719;48.130;11.630;2023-07-13T15:15:48;29.70;99.90
21123;DHT22;10719;48.130;11.630;2023-07-13T15:18:17;28.80;99.90
21123;DHT22;10719;48.130;11.630;2023-07-13T15:20:45;29.60;99.90
21123;DHT22;10719;48.130;11.630;2023-07-13T15:23:13;29.40;99.90
21123;DHT22;10719;48.130;11.630;2023-07-13T15:25:40;29.50;99.90
21123;DHT22;10719;48.130;11.630;2023-07-13T15:28:06;29.80;99.90
21123;DHT22;10719;48.130;11.630;2023-07-13T15:30:38;30.20;99.90
21123;DHT22;10719;48.130;11.630;2023-07-13T15:33:15;30.10;99.90
21123;DHT22;10719;48.130;11.630;2023-07-13T15:35:45;30.50;99.90
21123;DHT22;10719;48.130;11.630;2023-07-13T15:38:20;30.50;99.90
21123;DHT22;10719;48.130;11.630;2023-07-13T15:40:47;28.80;99.90
21123;DHT22;10719;48.130;11.630;2023-07-13T15:43:15;28.40;99.90
21123;DHT22;10719;48.130;11.630;2023-07-13T15:45:41;28.50;99.90
21123;DHT22;10719;48.130;11.630;2023-07-13T15:48:20;28.50;99.90
21123;DHT22;10719;48.130;11.630;2023-07-13T15:50:49;28.70;99.90
21123;DHT22;10719;48.130;11.630;2023-07-13T15:53:25;28.40;99.90
21123;DHT22;10719;48.130;11.630;2023-07-13T15:55:53;28.90;99.90
21123;DHT22;10719;48.130;11.630;2023-07-13T15:58:19;29.60;99.90
21123;DHT22;10719;48.130;11.630;2023-07-13T16:00:45;29.20;99.90
21123;DHT22;10719;48.130;11.630;2023-07-13T16:03:11;29.30;99.90
21123;DHT22;10719;48.130;11.630;2023-07-13T16:05:38;29.20;99.90
21123;DHT22;10719;48.130;11.630;2023-07-13T16:08:05;29.50;99.90
21123;DHT22;10719;48.130;11.630;2023-07-13T16:10:34;28.90;99.90
21123;DHT22;10719;48.130;11.630;2023-07-13T16:13:03;28.40;99.90